createdAt,value
2018-11-26T00:00:47.693Z,17.05
2018-11-26T00:03:16.779Z,17.40
2018-11-26T00:05:45.547Z,16.65
2018-11-26T00:08:14.051Z,17.40
2018-11-26T00:10:47.995Z,16.90
2018-11-26T00:13:18.151Z,17.50
2018-11-26T00:15:46.753Z,17.12
2018-11-26T00:18:15.382Z,17.70
2018-11-26T00:20:44.282Z,17.35
2018-11-26T00:23:12.837Z,17.00
2018-11-26T00:25:41.319Z,16.80
2018-11-26T00:28:09.933Z,17.00
2018-11-26T00:30:39.602Z,17.15
2018-11-26T00:33:08.134Z,17.60
2018-11-26T00:35:36.724Z,16.95
2018-11-26T00:38:05.270Z,17.37
2018-11-26T00:40:35.702Z,17.55
2018-11-26T00:43:04.666Z,17.40
2018-11-26T00:45:33.250Z,17.35
2018-11-26T00:48:02.442Z,17.50
2018-11-26T00:50:33.081Z,17.42
2018-11-26T00:53:01.848Z,17.40
2018-11-26T00:55:30.398Z,17.10
2018-11-26T00:58:00.358Z,17.73
2018-11-26T01:00:29.242Z,18.62
2018-11-26T01:02:57.852Z,17.70
2018-11-26T01:05:33.082Z,17.60
2018-11-26T01:08:01.679Z,17.82
2018-11-26T01:10:30.270Z,17.95
2018-11-26T01:13:00.081Z,17.07
2018-11-26T01:15:30.530Z,17.57
2018-11-26T01:17:59.192Z,17.80
2018-11-26T01:20:27.765Z,17.52
2018-11-26T01:22:58.235Z,17.80
2018-11-26T01:25:26.867Z,18.37
2018-11-26T01:27:55.700Z,18.17
2018-11-26T01:30:26.002Z,18.60
2018-11-26T01:32:54.440Z,17.42
2018-11-26T01:35:23.247Z,18.25
2018-11-26T01:37:52.026Z,17.52
2018-11-26T01:40:22.455Z,18.32
2018-11-26T01:42:51.041Z,18.73
2018-11-26T01:45:19.606Z,17.77
2018-11-26T01:47:48.347Z,17.95
2018-11-26T01:50:16.771Z,18.23
2018-11-26T01:52:45.366Z,17.60
2018-11-26T01:55:13.979Z,18.05
2018-11-26T01:57:44.081Z,16.97
2018-11-26T02:00:15.439Z,17.50
2018-11-26T02:02:43.919Z,18.15
2018-11-26T02:05:14.056Z,17.45
2018-11-26T02:07:42.599Z,17.98
2018-11-26T02:10:13.915Z,18.12
2018-11-26T02:12:44.195Z,17.95
2018-11-26T02:15:15.817Z,17.82
2018-11-26T02:17:44.354Z,17.25
2018-11-26T02:20:13.893Z,18.35
2018-11-26T02:22:44.143Z,17.60
2018-11-26T02:25:12.723Z,18.27
2018-11-26T02:27:41.225Z,18.55
2018-11-26T02:30:09.776Z,17.80
2018-11-26T02:32:38.356Z,18.17
2018-11-26T02:35:07.059Z,17.37
2018-11-26T02:37:35.522Z,17.27
2018-11-26T02:40:04.106Z,17.50
2018-11-26T02:42:33.094Z,18.40
2018-11-26T02:45:01.732Z,17.85
2018-11-26T02:47:31.016Z,18.48
2018-11-26T02:49:59.647Z,17.40
2018-11-26T02:52:28.601Z,17.95
2018-11-26T02:54:57.461Z,17.27
2018-11-26T02:57:27.761Z,18.25
2018-11-26T02:59:56.399Z,17.48
2018-11-26T03:02:25.064Z,17.15
2018-11-26T03:04:54.688Z,17.27
2018-11-26T03:07:23.365Z,18.87
2018-11-26T03:09:51.983Z,17.42
2018-11-26T03:12:20.930Z,18.30
2018-11-26T03:14:49.429Z,17.25
2018-11-26T03:17:18.110Z,18.00
2018-11-26T03:19:46.813Z,18.15
2018-11-26T03:22:16.770Z,17.87
2018-11-26T03:24:45.334Z,17.95
2018-11-26T03:27:13.828Z,17.85
2018-11-26T03:29:42.926Z,19.02
2018-11-26T03:32:13.434Z,18.27
2018-11-26T03:34:42.085Z,18.05
2018-11-26T03:37:10.599Z,18.57
2018-11-26T03:39:39.149Z,18.32
2018-11-26T03:42:07.485Z,18.90
2018-11-26T03:44:35.928Z,18.50
2018-11-26T03:47:05.823Z,18.98
2018-11-26T03:49:35.948Z,17.90
2018-11-26T03:52:04.462Z,18.60
2018-11-26T03:54:32.984Z,18.25
2018-11-26T03:57:01.613Z,17.87
2018-11-26T03:59:31.961Z,18.92
2018-11-26T04:02:00.651Z,18.87
2018-11-26T04:04:29.224Z,18.90
2018-11-26T04:06:59.374Z,18.82
2018-11-26T04:09:28.205Z,19.37
2018-11-26T04:11:57.203Z,18.65
2018-11-26T04:14:26.019Z,18.90
2018-11-26T04:16:54.611Z,18.98
2018-11-26T04:19:23.311Z,19.12
2018-11-26T04:21:51.818Z,18.73
2018-11-26T04:24:21.636Z,18.85
2018-11-26T04:26:50.181Z,18.30
2018-11-26T04:29:18.785Z,18.15
2018-11-26T04:31:47.361Z,18.32
2018-11-26T04:34:15.892Z,18.45
2018-11-26T04:36:44.297Z,18.12
2018-11-26T04:39:12.835Z,17.80
2018-11-26T04:41:43.098Z,18.35
2018-11-26T04:44:11.810Z,18.30
2018-11-26T04:46:40.902Z,18.42
2018-11-26T04:49:09.564Z,18.87
2018-11-26T04:51:38.120Z,18.35
2018-11-26T04:54:06.867Z,18.07
2018-11-26T04:56:37.196Z,18.25
2018-11-26T04:59:05.903Z,19.05
2018-11-26T05:01:34.485Z,18.45
2018-11-26T05:04:03.572Z,18.65
2018-11-26T05:06:33.783Z,18.48
2018-11-26T05:09:02.577Z,18.40
2018-11-26T05:11:31.343Z,18.42
2018-11-26T05:13:59.990Z,17.82
2018-11-26T05:16:29.987Z,18.60
2018-11-26T05:18:58.356Z,17.55
2018-11-26T05:21:28.352Z,17.15
2018-11-26T05:23:57.767Z,17.57
2018-11-26T05:26:28.045Z,18.35
2018-11-26T05:28:57.525Z,18.73
2018-11-26T05:31:26.136Z,17.15
2018-11-26T05:33:55.771Z,17.50
2018-11-26T05:36:25.074Z,17.25
2018-11-26T05:38:53.715Z,17.70
2018-11-26T05:41:22.294Z,17.65
2018-11-26T05:43:50.835Z,17.67
2018-11-26T05:46:20.556Z,17.60
2018-11-26T05:48:49.103Z,17.20
2018-11-26T05:51:19.508Z,17.20
2018-11-26T05:53:48.251Z,17.27
2018-11-26T05:56:16.831Z,16.45
2018-11-26T05:58:46.898Z,16.85
2018-11-26T06:01:15.517Z,18.17
2018-11-26T06:03:45.565Z,17.12
2018-11-26T06:06:14.342Z,17.27
2018-11-26T06:08:42.927Z,17.42
2018-11-26T06:11:11.500Z,17.25
2018-11-26T06:13:40.025Z,17.30
2018-11-26T06:16:08.438Z,16.85
2018-11-26T06:18:37.122Z,16.60
2018-11-26T06:21:06.429Z,16.82
2018-11-26T06:23:35.209Z,16.65
2018-11-26T06:26:04.206Z,16.90
2018-11-26T06:28:32.817Z,16.77
2018-11-26T06:31:01.821Z,16.93
2018-11-26T06:33:30.350Z,17.30
2018-11-26T06:36:00.410Z,16.77
2018-11-26T06:38:29.127Z,15.93
2018-11-26T06:40:57.729Z,17.05
2018-11-26T06:43:26.952Z,16.45
2018-11-26T06:45:57.117Z,16.05
2018-11-26T06:48:25.759Z,16.62
2018-11-26T06:50:54.751Z,15.98
2018-11-26T06:53:23.245Z,16.57
2018-11-26T06:55:51.816Z,15.98
2018-11-26T06:58:20.571Z,16.20
2018-11-26T07:00:49.180Z,15.88
2018-11-26T07:03:18.989Z,16.17
2018-11-26T07:05:47.611Z,15.60
2018-11-26T07:08:16.476Z,15.35
2018-11-26T07:10:46.484Z,16.42
2018-11-26T07:13:15.962Z,15.13
2018-11-26T07:15:45.429Z,15.43
2018-11-26T07:18:14.607Z,16.55
2018-11-26T07:20:43.805Z,15.90
2018-11-26T07:23:12.954Z,15.88
2018-11-26T07:25:41.622Z,15.63
2018-11-26T07:28:10.325Z,15.83
2018-11-26T07:30:38.908Z,15.75
2018-11-26T07:33:07.652Z,15.95
2018-11-26T07:35:36.109Z,15.23
2018-11-26T07:38:04.721Z,14.98
2018-11-26T07:40:33.383Z,15.35
2018-11-26T07:43:07.871Z,15.63
2018-11-26T07:45:36.287Z,14.63
2018-11-26T07:48:05.102Z,15.60
2018-11-26T07:50:33.803Z,15.35
2018-11-26T07:53:02.407Z,14.98
2018-11-26T07:55:31.007Z,14.68
2018-11-26T07:58:00.447Z,14.40
2018-11-26T08:00:29.079Z,15.08
2018-11-26T08:02:58.871Z,14.40
2018-11-26T08:05:28.126Z,15.75
2018-11-26T08:07:57.400Z,15.20
2018-11-26T08:10:26.769Z,14.63
2018-11-26T08:12:56.566Z,15.40
2018-11-26T08:15:27.448Z,14.20
2018-11-26T08:17:56.054Z,14.10
2018-11-26T08:20:24.913Z,15.43
2018-11-26T08:22:54.903Z,15.20
2018-11-26T08:25:24.737Z,14.33
2018-11-26T08:27:53.652Z,14.10
2018-11-26T08:30:23.441Z,14.05
2018-11-26T08:32:53.548Z,14.83
2018-11-26T08:35:22.423Z,14.40
2018-11-26T08:37:58.177Z,15.05
2018-11-26T08:40:30.351Z,14.45
2018-11-26T08:43:15.745Z,14.63
2018-11-26T08:45:50.561Z,13.95
2018-11-26T08:48:26.178Z,14.40
2018-11-26T08:50:56.669Z,14.43
2018-11-26T08:53:27.365Z,14.03
2018-11-26T08:55:56.890Z,14.60
2018-11-26T08:58:25.977Z,13.95
2018-11-26T09:01:01.522Z,14.18
2018-11-26T09:03:36.424Z,14.63
2018-11-26T09:06:06.304Z,15.00
2018-11-26T09:08:37.873Z,14.70
2018-11-26T09:11:07.410Z,14.78
2018-11-26T09:13:35.975Z,15.10
2018-11-26T09:16:05.222Z,14.85
2018-11-26T09:18:34.096Z,15.05
2018-11-26T09:21:02.630Z,14.78
2018-11-26T09:23:33.181Z,14.87
2018-11-26T09:26:02.913Z,14.83
2018-11-26T09:28:31.772Z,15.55
2018-11-26T09:31:00.349Z,14.75
2018-11-26T09:33:28.999Z,14.83
2018-11-26T09:35:58.111Z,14.75
2018-11-26T09:38:26.563Z,14.83
2018-11-26T09:40:56.929Z,14.98
2018-11-26T09:43:25.641Z,15.08
2018-11-26T09:45:55.085Z,15.78
2018-11-26T09:48:24.674Z,14.10
2018-11-26T09:50:53.920Z,15.10
2018-11-26T09:53:22.814Z,15.80
2018-11-26T09:55:51.540Z,15.88
2018-11-26T09:58:20.753Z,15.03
2018-11-26T10:00:49.193Z,15.30
2018-11-26T10:03:18.382Z,16.90
2018-11-26T10:05:47.671Z,15.60
2018-11-26T10:08:16.327Z,14.93
2018-11-26T10:10:46.586Z,15.53
2018-11-26T10:13:16.092Z,15.83
2018-11-26T10:15:45.056Z,15.40
2018-11-26T10:18:15.277Z,15.68
2018-11-26T10:20:45.311Z,15.13
2018-11-26T10:23:14.676Z,15.13
2018-11-26T10:25:43.278Z,15.10
2018-11-26T10:28:12.636Z,15.13
2018-11-26T10:30:42.303Z,15.08
2018-11-26T10:33:14.886Z,15.35
2018-11-26T10:35:41.984Z,15.55
2018-11-26T10:38:11.450Z,15.03
2018-11-26T10:40:41.297Z,15.93
2018-11-26T10:43:11.724Z,15.65
2018-11-26T10:45:40.138Z,15.48
2018-11-26T10:48:10.351Z,16.60
2018-11-26T10:50:40.045Z,15.65
2018-11-26T10:53:08.749Z,14.85
2018-11-26T10:55:37.790Z,15.15
2018-11-26T10:58:06.842Z,15.25
2018-11-26T11:00:40.787Z,14.85
2018-11-26T11:03:10.259Z,15.83
2018-11-26T11:05:39.789Z,15.90
2018-11-26T11:08:08.846Z,15.93
2018-11-26T11:10:37.371Z,14.80
2018-11-26T11:13:07.687Z,15.40
2018-11-26T11:15:37.432Z,14.53
2018-11-26T11:18:08.052Z,14.87
2018-11-26T11:20:37.996Z,15.35
2018-11-26T11:23:08.767Z,15.32
2018-11-26T11:25:37.474Z,15.08
2018-11-26T11:28:06.299Z,15.25
2018-11-26T11:30:35.760Z,15.35
2018-11-26T11:35:33.705Z,15.18
2018-11-26T11:38:02.824Z,15.75
2018-11-26T11:40:32.352Z,16.10
2018-11-26T11:43:00.956Z,15.48
2018-11-26T11:45:29.737Z,15.13
2018-11-26T11:47:58.607Z,15.50
2018-11-26T11:50:27.773Z,15.28
2018-11-26T11:52:56.634Z,16.05
2018-11-26T11:55:26.681Z,15.40
2018-11-26T11:57:55.343Z,15.58
2018-11-26T12:00:42.045Z,15.68
2018-11-26T12:03:12.916Z,15.55
2018-11-26T12:05:42.812Z,15.28
2018-11-26T12:08:11.801Z,15.03
2018-11-26T12:10:41.855Z,15.65
2018-11-26T12:13:12.416Z,14.93
2018-11-26T12:15:42.574Z,15.38
2018-11-26T12:18:12.420Z,15.83
2018-11-26T12:20:41.007Z,15.20
2018-11-26T12:23:09.610Z,14.68
2018-11-26T12:25:38.946Z,15.50
2018-11-26T12:28:08.203Z,14.90
2018-11-26T12:30:38.156Z,14.85
2018-11-26T12:33:08.017Z,14.87
2018-11-26T12:35:38.305Z,15.65
2018-11-26T12:38:07.267Z,15.15
2018-11-26T12:40:35.933Z,14.47
2018-11-26T12:43:04.969Z,14.87
2018-11-26T12:45:35.245Z,15.85
2018-11-26T12:48:04.500Z,15.65
2018-11-26T12:50:33.356Z,14.80
2018-11-26T12:53:02.530Z,15.25
2018-11-26T12:55:31.318Z,15.48
2018-11-26T12:58:01.095Z,15.40
2018-11-26T13:00:30.749Z,15.72
2018-11-26T13:03:00.625Z,15.05
2018-11-26T13:05:29.680Z,15.32
2018-11-26T13:07:59.201Z,15.30
2018-11-26T13:10:28.509Z,14.75
2018-11-26T13:12:57.881Z,15.25
2018-11-26T13:15:27.476Z,15.32
2018-11-26T13:17:57.106Z,15.83
2018-11-26T13:20:27.912Z,15.23
2018-11-26T13:22:56.500Z,15.95
2018-11-26T13:25:27.552Z,15.90
2018-11-26T13:27:56.622Z,15.35
2018-11-26T13:30:27.710Z,15.08
2018-11-26T13:32:57.074Z,14.68
2018-11-26T13:35:26.753Z,16.02
2018-11-26T13:37:56.576Z,15.15
2018-11-26T13:40:25.328Z,14.23
2018-11-26T13:42:54.569Z,15.10
2018-11-26T13:45:25.820Z,15.13
2018-11-26T13:47:55.071Z,15.60
2018-11-26T13:50:25.178Z,14.25
2018-11-26T13:52:55.331Z,15.50
2018-11-26T13:55:24.176Z,14.75
2018-11-26T13:57:53.675Z,14.70
2018-11-26T14:00:22.942Z,14.40
2018-11-26T14:02:52.459Z,14.45
2018-11-26T14:05:21.914Z,14.35
2018-11-26T14:07:51.385Z,14.65
2018-11-26T14:10:24.949Z,14.50
2018-11-26T14:13:01.901Z,14.70
2018-11-26T14:15:31.348Z,14.20
2018-11-26T14:18:01.294Z,14.20
2018-11-26T14:20:31.041Z,14.15
2018-11-26T14:23:00.086Z,14.13
2018-11-26T14:25:29.734Z,14.38
2018-11-26T14:27:59.691Z,14.85
2018-11-26T14:30:30.166Z,13.72
2018-11-26T14:32:59.622Z,14.03
2018-11-26T14:35:29.403Z,14.38
2018-11-26T14:38:01.232Z,14.47
2018-11-26T14:40:32.152Z,13.80
2018-11-26T14:43:01.309Z,14.68
2018-11-26T14:45:31.019Z,13.05
2018-11-26T14:48:00.116Z,14.28
2018-11-26T14:50:28.909Z,14.05
2018-11-26T14:52:57.900Z,13.62
2018-11-26T14:55:29.516Z,14.73
2018-11-26T14:57:58.951Z,13.65
2018-11-26T15:00:28.768Z,14.10
2018-11-26T15:02:58.481Z,13.43
2018-11-26T15:05:27.936Z,13.50
2018-11-26T15:07:56.862Z,13.62
2018-11-26T15:10:26.332Z,13.53
2018-11-26T15:12:55.520Z,14.03
2018-11-26T15:15:25.827Z,14.20
2018-11-26T15:17:55.829Z,13.68
2018-11-26T15:20:25.828Z,13.78
2018-11-26T15:22:55.987Z,14.28
2018-11-26T15:25:26.277Z,13.48
2018-11-26T15:27:56.096Z,13.68
2018-11-26T15:30:26.826Z,13.35
2018-11-26T15:32:56.094Z,13.45
2018-11-26T15:35:24.966Z,12.85
2018-11-26T15:37:54.766Z,13.85
2018-11-26T15:40:24.310Z,13.32
2018-11-26T15:42:54.242Z,13.48
2018-11-26T15:45:25.412Z,13.15
2018-11-26T15:47:55.320Z,14.05
2018-11-26T15:50:24.744Z,14.05
2018-11-26T15:52:53.536Z,13.53
2018-11-26T15:55:23.103Z,14.18
2018-11-26T15:57:51.825Z,14.05
2018-11-26T16:00:23.203Z,13.88
2018-11-26T16:02:51.995Z,13.35
2018-11-26T16:05:25.023Z,13.28
2018-11-26T16:07:54.407Z,13.68
2018-11-26T16:10:23.225Z,13.28
2018-11-26T16:12:54.036Z,13.40
2018-11-26T16:15:26.286Z,13.00
2018-11-26T16:17:55.754Z,12.35
2018-11-26T16:20:25.837Z,12.85
2018-11-26T16:22:54.587Z,13.53
2018-11-26T16:25:23.670Z,13.62
2018-11-26T16:27:52.461Z,13.28
2018-11-26T16:30:21.478Z,13.48
2018-11-26T16:32:53.976Z,12.98
2018-11-26T16:35:23.364Z,13.20
2018-11-26T16:37:53.692Z,14.10
2018-11-26T16:40:22.958Z,13.90
2018-11-26T16:42:51.652Z,13.08
2018-11-26T16:45:21.561Z,13.38
2018-11-26T16:47:51.700Z,13.43
2018-11-26T16:50:21.090Z,13.25
2018-11-26T16:52:51.695Z,13.68
2018-11-26T16:55:21.657Z,13.15
2018-11-26T16:57:52.039Z,12.82
2018-11-26T17:00:21.231Z,13.25
2018-11-26T17:02:50.852Z,13.75
2018-11-26T17:05:23.164Z,13.38
2018-11-26T17:07:52.349Z,12.70
2018-11-26T17:10:22.506Z,13.65
2018-11-26T17:12:51.621Z,13.25
2018-11-26T17:15:20.165Z,13.13
2018-11-26T17:17:48.789Z,13.03
2018-11-26T17:20:17.890Z,13.08
2018-11-26T17:22:46.707Z,14.15
2018-11-26T17:25:15.993Z,13.45
2018-11-26T17:27:45.737Z,12.80
2018-11-26T17:30:17.281Z,13.28
2018-11-26T17:32:47.805Z,13.28
2018-11-26T17:35:18.355Z,13.93
2018-11-26T17:37:47.916Z,13.45
2018-11-26T17:40:18.381Z,13.22
2018-11-26T17:42:48.134Z,13.55
2018-11-26T17:45:18.672Z,13.78
2018-11-26T17:47:48.853Z,13.13
2018-11-26T17:50:19.730Z,12.98
2018-11-26T17:52:49.953Z,12.88
2018-11-26T17:55:19.466Z,13.38
2018-11-26T17:57:48.339Z,13.28
2018-11-26T18:00:29.265Z,12.78
2018-11-26T18:02:58.859Z,12.70
2018-11-26T18:05:28.301Z,12.90
2018-11-26T18:08:02.080Z,12.90
2018-11-26T18:10:31.386Z,13.28
2018-11-26T18:13:00.176Z,13.00
2018-11-26T18:15:30.556Z,12.82
2018-11-26T18:17:59.730Z,12.90
2018-11-26T18:20:28.828Z,13.25
2018-11-26T18:22:57.708Z,13.08
2018-11-26T18:25:26.889Z,12.35
2018-11-26T18:27:58.317Z,12.30
2018-11-26T18:30:28.251Z,13.00
2018-11-26T18:32:57.301Z,12.15
2018-11-26T18:35:26.014Z,11.95
2018-11-26T18:37:54.518Z,12.58
2018-11-26T18:40:24.240Z,11.97
2018-11-26T18:42:54.148Z,12.23
2018-11-26T18:45:23.979Z,12.82
2018-11-26T18:47:52.759Z,12.82
2018-11-26T18:50:22.149Z,12.37
2018-11-26T18:52:52.789Z,12.75
2018-11-26T18:55:21.832Z,12.45
2018-11-26T18:57:51.303Z,12.80
2018-11-26T19:00:25.794Z,12.50
2018-11-26T19:02:54.845Z,12.18
2018-11-26T19:05:24.467Z,12.55
2018-11-26T19:07:53.486Z,12.68
2018-11-26T19:10:29.738Z,12.40
2018-11-26T19:13:00.562Z,12.50
2018-11-26T19:15:30.308Z,12.33
2018-11-26T19:18:00.937Z,11.73
2018-11-26T19:20:30.979Z,12.58
2018-11-26T19:23:00.867Z,12.37
2018-11-26T19:25:29.982Z,12.15
2018-11-26T19:28:00.237Z,12.07
2018-11-26T19:30:29.057Z,12.20
2018-11-26T19:32:59.297Z,11.60
2018-11-26T19:35:29.145Z,12.28
2018-11-26T19:37:58.785Z,12.80
2018-11-26T19:40:28.332Z,11.80
2018-11-26T19:42:57.247Z,11.93
2018-11-26T19:45:27.096Z,11.80
2018-11-26T19:47:57.238Z,11.83
2018-11-26T19:50:26.906Z,12.30
2018-11-26T19:52:56.530Z,11.95
2018-11-26T19:55:26.258Z,11.93
2018-11-26T19:57:55.872Z,11.75
2018-11-26T20:00:26.936Z,12.00
2018-11-26T20:02:57.014Z,12.18
2018-11-26T20:05:36.920Z,11.63
2018-11-26T20:08:07.285Z,11.85
2018-11-26T20:10:36.348Z,11.90
2018-11-26T20:13:06.765Z,11.93
2018-11-26T20:15:37.102Z,12.37
2018-11-26T20:18:06.670Z,12.15
2018-11-26T20:20:35.764Z,11.65
2018-11-26T20:23:04.817Z,12.13
2018-11-26T20:25:33.611Z,11.73
2018-11-26T20:28:03.630Z,11.70
2018-11-26T20:30:32.322Z,12.03
2018-11-26T20:33:02.336Z,11.73
2018-11-26T20:35:30.808Z,12.43
2018-11-26T20:37:59.471Z,11.93
2018-11-26T20:40:28.199Z,11.12
2018-11-26T20:42:57.066Z,12.00
2018-11-26T20:45:25.715Z,12.07
2018-11-26T20:47:54.626Z,11.70
2018-11-26T20:50:24.949Z,11.60
2018-11-26T20:52:53.680Z,11.85
2018-11-26T20:55:23.112Z,12.20
2018-11-26T20:57:52.611Z,12.40
2018-11-26T21:00:21.956Z,12.15
2018-11-26T21:02:51.597Z,12.88
2018-11-26T21:05:20.462Z,12.43
2018-11-26T21:07:49.235Z,13.20
2018-11-26T21:10:17.993Z,12.50
2018-11-26T21:12:47.017Z,13.45
2018-11-26T21:15:16.094Z,13.32
2018-11-26T21:17:45.703Z,13.70
2018-11-26T21:20:16.470Z,14.53
2018-11-26T21:22:45.210Z,14.43
2018-11-26T21:25:15.404Z,13.70
2018-11-26T21:27:45.071Z,14.18
2018-11-26T21:30:15.865Z,14.07
2018-11-26T21:32:44.806Z,13.83
2018-11-26T21:35:14.141Z,14.47
2018-11-26T21:37:43.938Z,14.00
2018-11-26T21:40:13.432Z,14.38
2018-11-26T21:42:42.355Z,14.25
2018-11-26T21:45:12.660Z,13.62
2018-11-26T21:47:41.270Z,14.10
2018-11-26T21:50:14.260Z,14.70
2018-11-26T21:52:45.051Z,14.93
2018-11-26T21:55:17.382Z,13.95
2018-11-26T21:57:47.520Z,14.15
2018-11-26T22:00:23.684Z,14.40
2018-11-26T22:02:54.080Z,14.10
2018-11-26T22:05:24.353Z,13.83
2018-11-26T22:07:54.680Z,14.90
2018-11-26T22:10:24.042Z,14.70
2018-11-26T22:12:54.466Z,15.05
2018-11-26T22:15:24.674Z,14.78
2018-11-26T22:17:53.766Z,14.33
2018-11-26T22:20:23.022Z,14.23
2018-11-26T22:22:52.329Z,15.25
2018-11-26T22:25:23.065Z,15.13
2018-11-26T22:27:52.024Z,15.10
2018-11-26T22:30:28.178Z,14.28
2018-11-26T22:32:56.789Z,14.75
2018-11-26T22:35:25.425Z,14.00
2018-11-26T22:37:55.729Z,14.87
2018-11-26T22:40:25.230Z,14.20
2018-11-26T22:42:53.919Z,14.13
2018-11-26T22:45:28.707Z,14.23
2018-11-26T22:48:03.166Z,14.78
2018-11-26T22:50:32.318Z,13.65
2018-11-26T22:53:01.416Z,14.93
2018-11-26T22:55:30.197Z,14.00
2018-11-26T22:58:00.227Z,14.05
2018-11-26T23:00:36.648Z,14.00
2018-11-26T23:03:05.362Z,13.93
2018-11-26T23:05:34.083Z,15.30
2018-11-26T23:08:02.735Z,13.68
2018-11-26T23:10:31.410Z,13.80
2018-11-26T23:12:59.813Z,13.75
2018-11-26T23:15:28.405Z,13.72
2018-11-26T23:17:56.965Z,13.22
2018-11-26T23:20:25.943Z,13.72
2018-11-26T23:22:54.557Z,14.58
2018-11-26T23:25:23.120Z,13.78
2018-11-26T23:27:51.799Z,13.30
2018-11-26T23:30:21.026Z,14.23
2018-11-26T23:32:50.104Z,14.05
2018-11-26T23:35:19.551Z,13.55
2018-11-26T23:37:47.985Z,13.85
2018-11-26T23:40:16.782Z,13.05
2018-11-26T23:42:45.373Z,13.90
2018-11-26T23:45:14.420Z,13.78
2018-11-26T23:47:43.186Z,13.58
2018-11-26T23:50:12.484Z,13.98
2018-11-26T23:52:43.233Z,13.70
2018-11-26T23:55:12.705Z,13.38
2018-11-26T23:57:41.441Z,13.30
